sensor_id;sensor_type;location;lat;lon;timestamp;pressure;altitude;pressure_sealevel;temperature;humidity
63665;BME280;49820;33.966;73.390;2023-03-13T02:32:36;79110.91;;;13.69;56.48
63665;BME280;49820;33.966;73.390;2023-03-13T02:37:17;79106.47;;;14.07;53.11
63665;BME280;49820;33.966;73.390;2023-03-13T02:42:46;79131.28;;;14.76;52.95
63665;BME280;49820;33.966;73.390;2023-03-13T02:45:18;79127.25;;;14.98;51.92
63665;BME280;49820;33.966;73.390;2023-03-13T02:48:56;79127.13;;;15.23;51.15
63665;BME280;49820;33.966;73.390;2023-03-13T02:51:35;79130.41;;;15.46;50.82
63665;BME280;49820;33.966;73.390;2023-03-13T02:54:15;79143.91;;;15.86;48.65
63665;BME280;49820;33.966;73.390;2023-03-13T02:56:48;79141.31;;;16.02;50.62
63665;BME280;49820;33.966;73.390;2023-03-13T02:59:18;79122.88;;;16.09;50.76
63665;BME280;49820;33.966;73.390;2023-03-13T03:01:49;79140.72;;;16.56;49.02
63665;BME280;49820;33.966;73.390;2023-03-13T03:04:23;79139.06;;;16.65;47.12
63665;BME280;49820;33.966;73.390;2023-03-13T03:06:55;79148.84;;;16.75;48.13
63665;BME280;49820;33.966;73.390;2023-03-13T03:09:25;79135.56;;;17.04;47.46
63665;BME280;49820;33.966;73.390;2023-03-13T03:11:59;79150.31;;;17.43;47.71
63665;BME280;49820;33.966;73.390;2023-03-13T03:14:29;79144.00;;;17.48;47.33
63665;BME280;49820;33.966;73.390;2023-03-13T03:16:57;79137.44;;;17.60;46.20
63665;BME280;49820;33.966;73.390;2023-03-13T03:19:26;79142.53;;;17.68;46.34
63665;BME280;49820;33.966;73.390;2023-03-13T03:22:00;79149.19;;;17.88;46.02
63665;BME280;49820;33.966;73.390;2023-03-13T03:24:31;79160.06;;;17.69;44.82
63665;BME280;49820;33.966;73.390;2023-03-13T03:27:00;79158.34;;;17.78;44.51
63665;BME280;49820;33.966;73.390;2023-03-13T03:29:36;79157.03;;;17.94;43.98
63665;BME280;49820;33.966;73.390;2023-03-13T03:32:06;79157.94;;;17.88;45.13
63665;BME280;49820;33.966;73.390;2023-03-13T03:34:35;79158.00;;;18.20;44.60
63665;BME280;49820;33.966;73.390;2023-03-13T03:37:04;79161.75;;;18.44;43.86
63665;BME280;49820;33.966;73.390;2023-03-13T03:39:33;79170.94;;;18.82;44.47
63665;BME280;49820;33.966;73.390;2023-03-13T03:42:05;79179.31;;;19.08;42.44
63665;BME280;49820;33.966;73.390;2023-03-13T03:44:34;79163.69;;;18.93;42.70
63665;BME280;49820;33.966;73.390;2023-03-13T03:47:04;79168.66;;;19.03;43.57
63665;BME280;49820;33.966;73.390;2023-03-13T03:49:38;79185.22;;;19.12;42.10
63665;BME280;49820;33.966;73.390;2023-03-13T03:52:10;79177.94;;;19.38;42.96
63665;BME280;49820;33.966;73.390;2023-03-13T03:54:42;79188.41;;;19.46;41.59
63665;BME280;49820;33.966;73.390;2023-03-13T03:57:12;79189.66;;;19.64;41.07
63665;BME280;49820;33.966;73.390;2023-03-13T03:59:44;79192.56;;;19.74;42.53
63665;BME280;49820;33.966;73.390;2023-03-13T04:02:13;79188.72;;;19.55;42.26
63665;BME280;49820;33.966;73.390;2023-03-13T04:04:43;79200.34;;;19.83;42.34
63665;BME280;49820;33.966;73.390;2023-03-13T04:07:26;79173.28;;;19.36;41.08
63665;BME280;49820;33.966;73.390;2023-03-13T04:09:55;79196.19;;;19.54;40.64
63665;BME280;49820;33.966;73.390;2023-03-13T04:12:34;79182.03;;;19.68;41.28
63665;BME280;49820;33.966;73.390;2023-03-13T04:15:04;79201.16;;;19.64;42.66
63665;BME280;49820;33.966;73.390;2023-03-13T04:17:33;79196.50;;;19.77;42.76
63665;BME280;49820;33.966;73.390;2023-03-13T04:20:04;79186.88;;;19.66;42.73
63665;BME280;49820;33.966;73.390;2023-03-13T04:22:35;79207.31;;;19.48;42.28
63665;BME280;49820;33.966;73.390;2023-03-13T04:25:06;79206.75;;;19.46;43.04
63665;BME280;49820;33.966;73.390;2023-03-13T04:27:37;79214.91;;;19.75;43.32
63665;BME280;49820;33.966;73.390;2023-03-13T04:30:08;79214.47;;;19.39;41.91
63665;BME280;49820;33.966;73.390;2023-03-13T04:33:02;79210.88;;;19.59;42.81
63665;BME280;49820;33.966;73.390;2023-03-13T04:35:31;79214.47;;;19.39;42.29
63665;BME280;49820;33.966;73.390;2023-03-13T04:38:13;79213.22;;;19.53;43.24
63665;BME280;49820;33.966;73.390;2023-03-13T04:41:14;79190.94;;;18.89;43.68
63665;BME280;49820;33.966;73.390;2023-03-13T04:44:02;79212.41;;;19.39;44.42
63665;BME280;49820;33.966;73.390;2023-03-13T04:46:39;79202.31;;;19.23;41.53
63665;BME280;49820;33.966;73.390;2023-03-13T04:49:24;79206.13;;;19.14;44.67
63665;BME280;49820;33.966;73.390;2023-03-13T04:52:11;79223.78;;;19.13;43.93
63665;BME280;49820;33.966;73.390;2023-03-13T04:55:01;79221.63;;;19.15;43.87
63665;BME280;49820;33.966;73.390;2023-03-13T04:58:05;79221.50;;;19.02;42.76
63665;BME280;49820;33.966;73.390;2023-03-13T05:00:55;79206.66;;;18.70;46.57
63665;BME280;49820;33.966;73.390;2023-03-13T05:03:57;79218.81;;;19.02;43.70
63665;BME280;49820;33.966;73.390;2023-03-13T05:06:42;79187.31;;;18.47;46.46
63665;BME280;49820;33.966;73.390;2023-03-13T05:09:30;79214.94;;;18.66;44.11
63665;BME280;49820;33.966;73.390;2023-03-13T05:12:18;79223.81;;;18.64;41.76
63665;BME280;49820;33.966;73.390;2023-03-13T05:15:05;79217.91;;;18.60;44.38
63665;BME280;49820;33.966;73.390;2023-03-13T05:17:52;79193.97;;;18.16;44.96
63665;BME280;49820;33.966;73.390;2023-03-13T05:20:37;79227.50;;;18.40;43.73
63665;BME280;49820;33.966;73.390;2023-03-13T05:23:28;79212.47;;;18.43;43.75
63665;BME280;49820;33.966;73.390;2023-03-13T05:25:57;79213.72;;;18.46;43.51
63665;BME280;49820;33.966;73.390;2023-03-13T05:28:52;79192.00;;;18.32;43.71
63665;BME280;49820;33.966;73.390;2023-03-13T05:31:32;79220.44;;;18.64;45.86
63665;BME280;49820;33.966;73.390;2023-03-13T05:34:20;79195.50;;;18.61;44.09
63665;BME280;49820;33.966;73.390;2023-03-13T05:37:11;79194.94;;;18.59;47.45
63665;BME280;49820;33.966;73.390;2023-03-13T05:39:44;79216.69;;;18.40;44.56
63665;BME280;49820;33.966;73.390;2023-03-13T05:42:27;79222.66;;;18.43;44.75
63665;BME280;49820;33.966;73.390;2023-03-13T05:45:14;79219.06;;;18.48;44.17
63665;BME280;49820;33.966;73.390;2023-03-13T05:47:43;79204.22;;;18.95;44.08
63665;BME280;49820;33.966;73.390;2023-03-13T05:50:39;79217.28;;;19.37;43.16
63665;BME280;49820;33.966;73.390;2023-03-13T05:53:24;79205.59;;;19.40;41.13
63665;BME280;49820;33.966;73.390;2023-03-13T05:56:21;79193.97;;;20.17;42.00
63665;BME280;49820;33.966;73.390;2023-03-13T05:59:11;79184.94;;;20.36;40.87
63665;BME280;49820;33.966;73.390;2023-03-13T06:01:43;79206.19;;;20.31;39.57
63665;BME280;49820;33.966;73.390;2023-03-13T06:04:38;79195.06;;;21.07;40.12
63665;BME280;49820;33.966;73.390;2023-03-13T06:07:07;79199.56;;;21.25;38.12
63665;BME280;49820;33.966;73.390;2023-03-13T06:09:36;79193.78;;;21.58;40.33
63665;BME280;49820;33.966;73.390;2023-03-13T06:12:08;79201.50;;;21.66;38.83
63665;BME280;49820;33.966;73.390;2023-03-13T06:14:39;79197.91;;;21.57;38.82
63665;BME280;49820;33.966;73.390;2023-03-13T06:17:14;79216.59;;;22.16;37.26
63665;BME280;49820;33.966;73.390;2023-03-13T06:19:44;79202.44;;;22.26;36.46
63665;BME280;49820;33.966;73.390;2023-03-13T06:22:16;79211.44;;;22.73;36.57
63665;BME280;49820;33.966;73.390;2023-03-13T06:24:45;79184.88;;;22.74;37.88
63665;BME280;49820;33.966;73.390;2023-03-13T06:27:16;79204.69;;;23.21;34.04
63665;BME280;49820;33.966;73.390;2023-03-13T06:29:45;79191.84;;;23.43;34.06
63665;BME280;49820;33.966;73.390;2023-03-13T06:32:15;79201.19;;;23.82;34.57
63665;BME280;49820;33.966;73.390;2023-03-13T06:34:44;79207.09;;;23.97;34.86
63665;BME280;49820;33.966;73.390;2023-03-13T06:37:13;79181.28;;;24.51;31.87
63665;BME280;49820;33.966;73.390;2023-03-13T06:39:43;79183.28;;;24.74;34.49
63665;BME280;49820;33.966;73.390;2023-03-13T06:42:12;79192.06;;;25.08;33.02
63665;BME280;49820;33.966;73.390;2023-03-13T06:44:41;79193.13;;;25.35;37.48
63665;BME280;49820;33.966;73.390;2023-03-13T06:47:10;79181.13;;;25.51;34.98
63665;BME280;49820;33.966;73.390;2023-03-13T06:49:42;79190.91;;;25.48;34.37
63665;BME280;49820;33.966;73.390;2023-03-13T06:52:11;79189.50;;;25.60;31.50
63665;BME280;49820;33.966;73.390;2023-03-13T06:54:40;79165.47;;;25.92;31.01
63665;BME280;49820;33.966;73.390;2023-03-13T06:57:10;79173.31;;;25.56;31.83
63665;BME280;49820;33.966;73.390;2023-03-13T06:59:40;79163.69;;;25.67;33.27
63665;BME280;49820;33.966;73.390;2023-03-13T07:02:11;79184.44;;;26.56;32.33
63665;BME280;49820;33.966;73.390;2023-03-13T07:04:40;79182.91;;;26.78;31.69
63665;BME280;49820;33.966;73.390;2023-03-13T07:07:11;79154.03;;;27.28;31.37
63665;BME280;49820;33.966;73.390;2023-03-13T07:09:58;79151.59;;;27.63;31.07
63665;BME280;49820;33.966;73.390;2023-03-13T07:12:27;79161.00;;;27.75;30.36
63665;BME280;49820;33.966;73.390;2023-03-13T07:14:56;79150.50;;;27.96;28.73
63665;BME280;49820;33.966;73.390;2023-03-13T07:17:27;79170.03;;;28.48;32.69
63665;BME280;49820;33.966;73.390;2023-03-13T07:19:56;79166.72;;;27.81;30.71
63665;BME280;49820;33.966;73.390;2023-03-13T07:22:25;79160.84;;;28.24;31.12
63665;BME280;49820;33.966;73.390;2023-03-13T07:24:54;79138.50;;;27.25;24.51
63665;BME280;49820;33.966;73.390;2023-03-13T07:27:23;79156.63;;;27.50;27.90
63665;BME280;49820;33.966;73.390;2023-03-13T07:29:52;79141.03;;;27.18;31.45
63665;BME280;49820;33.966;73.390;2023-03-13T07:32:21;79140.78;;;27.89;34.62
63665;BME280;49820;33.966;73.390;2023-03-13T07:34:50;79146.69;;;27.55;25.68
63665;BME280;49820;33.966;73.390;2023-03-13T07:37:20;79151.59;;;26.45;26.97
63665;BME280;49820;33.966;73.390;2023-03-13T07:39:49;79139.50;;;26.02;27.07
63665;BME280;49820;33.966;73.390;2023-03-13T07:42:18;79146.81;;;26.95;29.41
63665;BME280;49820;33.966;73.390;2023-03-13T07:44:47;79139.00;;;25.89;26.78
63665;BME280;49820;33.966;73.390;2023-03-13T07:47:16;79120.25;;;25.82;28.30
63665;BME280;49820;33.966;73.390;2023-03-13T07:49:44;79118.81;;;27.22;30.85
63665;BME280;49820;33.966;73.390;2023-03-13T07:52:14;79125.00;;;26.44;30.51
63665;BME280;49820;33.966;73.390;2023-03-13T07:54:43;79107.50;;;26.99;26.70
63665;BME280;49820;33.966;73.390;2023-03-13T07:57:12;79112.31;;;26.98;31.00
63665;BME280;49820;33.966;73.390;2023-03-13T07:59:42;79106.88;;;27.26;34.56
63665;BME280;49820;33.966;73.390;2023-03-13T08:02:11;79099.28;;;27.46;30.40
63665;BME280;49820;33.966;73.390;2023-03-13T08:04:41;79086.19;;;26.99;27.30
63665;BME280;49820;33.966;73.390;2023-03-13T08:07:11;79094.69;;;25.86;28.56
63665;BME280;49820;33.966;73.390;2023-03-13T08:09:40;79090.78;;;25.00;29.61
63665;BME280;49820;33.966;73.390;2023-03-13T08:12:10;79073.59;;;26.64;33.38
63665;BME280;49820;33.966;73.390;2023-03-13T08:14:39;79071.00;;;26.42;28.28
63665;BME280;49820;33.966;73.390;2023-03-13T08:17:10;79069.13;;;26.88;30.76
63665;BME280;49820;33.966;73.390;2023-03-13T08:19:39;79069.09;;;27.46;29.81
63665;BME280;49820;33.966;73.390;2023-03-13T08:22:08;79070.94;;;27.30;30.02
63665;BME280;49820;33.966;73.390;2023-03-13T08:24:36;79057.59;;;26.77;27.21
63665;BME280;49820;33.966;73.390;2023-03-13T08:27:05;79069.88;;;25.99;27.18
63665;BME280;49820;33.966;73.390;2023-03-13T08:29:34;79073.91;;;26.00;28.42
63665;BME280;49820;33.966;73.390;2023-03-13T08:32:04;79049.56;;;26.26;30.00
63665;BME280;49820;33.966;73.390;2023-03-13T08:34:33;79059.84;;;27.13;29.82
63665;BME280;49820;33.966;73.390;2023-03-13T08:37:04;79050.03;;;26.58;29.82
63665;BME280;49820;33.966;73.390;2023-03-13T08:39:32;79055.63;;;26.07;26.42
63665;BME280;49820;33.966;73.390;2023-03-13T08:42:02;79063.38;;;27.11;31.32
63665;BME280;49820;33.966;73.390;2023-03-13T08:44:31;79047.03;;;27.28;28.82
63665;BME280;49820;33.966;73.390;2023-03-13T08:47:05;79047.56;;;27.87;33.63
63665;BME280;49820;33.966;73.390;2023-03-13T08:49:34;79058.69;;;27.57;30.45
63665;BME280;49820;33.966;73.390;2023-03-13T08:52:04;79048.72;;;27.98;30.26
63665;BME280;49820;33.966;73.390;2023-03-13T08:54:33;79034.41;;;27.51;26.86
63665;BME280;49820;33.966;73.390;2023-03-13T08:57:02;79044.69;;;26.75;29.28
63665;BME280;49820;33.966;73.390;2023-03-13T08:59:32;79053.56;;;27.14;29.77
63665;BME280;49820;33.966;73.390;2023-03-13T09:02:00;79037.72;;;27.98;30.17
63665;BME280;49820;33.966;73.390;2023-03-13T09:04:36;79031.56;;;28.26;27.71
63665;BME280;49820;33.966;73.390;2023-03-13T09:07:05;79030.31;;;27.97;30.42
63665;BME280;49820;33.966;73.390;2023-03-13T09:09:34;79007.34;;;27.92;26.86
63665;BME280;49820;33.966;73.390;2023-03-13T09:12:03;79001.03;;;28.38;26.98
63665;BME280;49820;33.966;73.390;2023-03-13T09:14:34;79022.63;;;27.24;28.66
63665;BME280;49820;33.966;73.390;2023-03-13T09:17:03;79022.22;;;27.11;24.50
63665;BME280;49820;33.966;73.390;2023-03-13T09:19:35;79018.84;;;27.11;26.43
63665;BME280;49820;33.966;73.390;2023-03-13T09:22:08;79027.66;;;26.83;28.52
63665;BME280;49820;33.966;73.390;2023-03-13T09:24:36;79000.41;;;26.81;28.88
63665;BME280;49820;33.966;73.390;2023-03-13T09:27:05;79002.25;;;27.68;27.93
63665;BME280;49820;33.966;73.390;2023-03-13T09:29:34;78988.84;;;27.64;26.96
63665;BME280;49820;33.966;73.390;2023-03-13T09:32:09;79013.63;;;25.40;27.18
63665;BME280;49820;33.966;73.390;2023-03-13T09:34:38;79016.88;;;24.27;27.76
63665;BME280;49820;33.966;73.390;2023-03-13T09:37:08;79009.97;;;24.07;30.08
63665;BME280;49820;33.966;73.390;2023-03-13T09:39:37;78993.31;;;24.96;32.75
63665;BME280;49820;33.966;73.390;2023-03-13T09:42:28;79001.47;;;26.37;29.64
63665;BME280;49820;33.966;73.390;2023-03-13T09:45:11;78997.19;;;26.10;28.95
63665;BME280;49820;33.966;73.390;2023-03-13T09:47:51;78984.72;;;26.22;31.53
63665;BME280;49820;33.966;73.390;2023-03-13T09:50:33;78987.13;;;25.68;28.26
63665;BME280;49820;33.966;73.390;2023-03-13T09:53:13;78994.28;;;25.63;29.39
63665;BME280;49820;33.966;73.390;2023-03-13T09:55:43;78981.16;;;26.53;29.61
63665;BME280;49820;33.966;73.390;2023-03-13T09:58:18;78968.88;;;26.72;29.92
63665;BME280;49820;33.966;73.390;2023-03-13T10:01:02;78973.56;;;26.73;27.84
63665;BME280;49820;33.966;73.390;2023-03-13T10:03:43;78973.50;;;26.45;27.80
63665;BME280;49820;33.966;73.390;2023-03-13T10:06:20;78972.28;;;24.63;25.66
63665;BME280;49820;33.966;73.390;2023-03-13T10:08:51;78951.75;;;22.66;28.42
63665;BME280;49820;33.966;73.390;2023-03-13T10:11:27;78975.97;;;22.36;32.13
63665;BME280;49820;33.966;73.390;2023-03-13T10:14:28;78975.22;;;23.29;29.45
63665;BME280;49820;33.966;73.390;2023-03-13T10:17:12;78959.94;;;21.71;32.96
63665;BME280;49820;33.966;73.390;2023-03-13T10:19:43;78965.00;;;21.03;35.43
63665;BME280;49820;33.966;73.390;2023-03-13T10:22:20;78966.94;;;20.92;36.25
63665;BME280;49820;33.966;73.390;2023-03-13T10:27:50;78976.59;;;20.76;36.02
63665;BME280;49820;33.966;73.390;2023-03-13T10:30:25;78961.44;;;20.29;36.69
63665;BME280;49820;33.966;73.390;2023-03-13T10:33:18;78962.34;;;19.98;37.79
63665;BME280;49820;33.966;73.390;2023-03-13T10:36:00;78970.75;;;19.37;43.34
63665;BME280;49820;33.966;73.390;2023-03-13T10:38:53;78973.88;;;19.56;41.31
63665;BME280;49820;33.966;73.390;2023-03-13T10:41:27;78958.94;;;19.00;44.16
63665;BME280;49820;33.966;73.390;2023-03-13T10:44:02;78960.06;;;18.91;42.08
63665;BME280;49820;33.966;73.390;2023-03-13T10:46:33;78965.31;;;18.80;41.80
63665;BME280;49820;33.966;73.390;2023-03-13T10:49:10;78967.69;;;18.27;42.91
63665;BME280;49820;33.966;73.390;2023-03-13T10:51:49;78973.84;;;18.41;42.13
63665;BME280;49820;33.966;73.390;2023-03-13T10:54:31;78928.56;;;17.80;43.43
63665;BME280;49820;33.966;73.390;2023-03-13T10:59:52;78944.00;;;17.67;46.23
63665;BME280;49820;33.966;73.390;2023-03-13T11:02:32;78970.66;;;18.07;43.57
63665;BME280;49820;33.966;73.390;2023-03-13T11:05:30;78968.09;;;17.88;45.22
63665;BME280;49820;33.966;73.390;2023-03-13T11:08:21;78965.34;;;17.73;46.58
63665;BME280;49820;33.966;73.390;2023-03-13T11:10:59;78966.75;;;17.55;48.08
63665;BME280;49820;33.966;73.390;2023-03-13T11:13:42;78968.97;;;17.99;44.87
63665;BME280;49820;33.966;73.390;2023-03-13T11:16:27;78947.25;;;17.70;44.89
63665;BME280;49820;33.966;73.390;2023-03-13T11:22:06;78935.56;;;17.75;48.03
63665;BME280;49820;33.966;73.390;2023-03-13T11:25:02;78966.53;;;17.45;46.03
63665;BME280;49820;33.966;73.390;2023-03-13T11:33:22;78963.16;;;17.61;49.75
63665;BME280;49820;33.966;73.390;2023-03-13T11:36:04;78941.38;;;17.17;47.83
63665;BME280;49820;33.966;73.390;2023-03-13T11:38:50;78962.81;;;16.88;48.64
63665;BME280;49820;33.966;73.390;2023-03-13T11:41:55;78962.34;;;16.83;48.52
63665;BME280;49820;33.966;73.390;2023-03-13T11:44:35;78940.16;;;16.47;54.65
63665;BME280;49820;33.966;73.390;2023-03-13T11:50:47;78942.53;;;16.03;51.37
63665;BME280;49820;33.966;73.390;2023-03-13T11:56:25;78966.38;;;15.96;53.89
63665;BME280;49820;33.966;73.390;2023-03-13T12:01:48;78958.81;;;15.82;53.02
63665;BME280;49820;33.966;73.390;2023-03-13T12:04:29;78935.72;;;15.50;51.49
63665;BME280;49820;33.966;73.390;2023-03-13T12:07:51;78939.69;;;15.15;52.30
63665;BME280;49820;33.966;73.390;2023-03-13T12:10:15;78961.63;;;15.41;52.26
63665;BME280;49820;33.966;73.390;2023-03-13T12:13:00;78949.41;;;15.44;51.06
63665;BME280;49820;33.966;73.390;2023-03-13T12:15:43;78945.19;;;15.49;51.30
63665;BME280;49820;33.966;73.390;2023-03-13T12:18:35;78963.88;;;15.55;51.21
63665;BME280;49820;33.966;73.390;2023-03-13T12:21:27;78955.16;;;15.52;52.91
63665;BME280;49820;33.966;73.390;2023-03-13T12:27:36;78961.00;;;15.96;52.92
63665;BME280;49820;33.966;73.390;2023-03-13T12:30:30;78963.03;;;15.96;51.57
63665;BME280;49820;33.966;73.390;2023-03-13T12:35:40;78935.63;;;15.54;53.95
63665;BME280;49820;33.966;73.390;2023-03-13T12:38:36;78952.94;;;15.40;53.09
63665;BME280;49820;33.966;73.390;2023-03-13T12:43:54;78961.53;;;14.86;54.32
63665;BME280;49820;33.966;73.390;2023-03-13T12:46:42;78934.75;;;14.43;54.45
63665;BME280;49820;33.966;73.390;2023-03-13T12:55:21;78966.22;;;13.82;57.03
63665;BME280;49820;33.966;73.390;2023-03-13T13:00:47;78931.84;;;13.43;57.95
63665;BME280;49820;33.966;73.390;2023-03-13T13:11:44;78966.78;;;12.93;61.19
63665;BME280;49820;33.966;73.390;2023-03-13T13:17:31;78964.00;;;12.73;61.64
63665;BME280;49820;33.966;73.390;2023-03-13T13:20:31;78961.38;;;12.46;62.52
63665;BME280;49820;33.966;73.390;2023-03-13T13:25:54;78971.44;;;12.18;64.16
63665;BME280;49820;33.966;73.390;2023-03-13T13:28:34;78942.72;;;11.90;65.56
63665;BME280;49820;33.966;73.390;2023-03-13T13:37:00;78970.13;;;11.91;67.64
63665;BME280;49820;33.966;73.390;2023-03-13T13:39:45;78969.28;;;11.98;66.88
63665;BME280;49820;33.966;73.390;2023-03-13T13:45:56;78964.41;;;11.78;68.29
63665;BME280;49820;33.966;73.390;2023-03-13T13:48:32;78971.09;;;11.79;67.31
63665;BME280;49820;33.966;73.390;2023-03-13T13:53:47;78956.00;;;11.65;68.21
63665;BME280;49820;33.966;73.390;2023-03-13T13:56:37;78976.56;;;11.73;68.42
63665;BME280;49820;33.966;73.390;2023-03-13T14:04:55;78976.66;;;11.69;68.43
63665;BME280;49820;33.966;73.390;2023-03-13T14:07:45;78968.81;;;11.61;69.22
63665;BME280;49820;33.966;73.390;2023-03-13T14:10:40;78959.94;;;11.39;69.32
63665;BME280;49820;33.966;73.390;2023-03-13T14:13:19;78982.38;;;11.53;69.77
63665;BME280;49820;33.966;73.390;2023-03-13T14:15:50;78980.00;;;11.40;70.15
63665;BME280;49820;33.966;73.390;2023-03-13T14:18:27;78988.03;;;11.40;71.07
63665;BME280;49820;33.966;73.390;2023-03-13T14:21:01;78988.16;;;11.34;71.31
63665;BME280;49820;33.966;73.390;2023-03-13T14:26:18;78996.59;;;11.16;72.28
63665;BME280;49820;33.966;73.390;2023-03-13T14:28:56;78963.72;;;10.91;72.89
63665;BME280;49820;33.966;73.390;2023-03-13T14:31:28;78982.91;;;10.99;72.79
63665;BME280;49820;33.966;73.390;2023-03-13T14:34:01;78994.63;;;11.13;72.46
63665;BME280;49820;33.966;73.390;2023-03-13T14:37:02;78953.38;;;10.75;72.19
63665;BME280;49820;33.966;73.390;2023-03-13T14:39:45;78987.44;;;11.05;72.22
63665;BME280;49820;33.966;73.390;2023-03-13T14:42:17;78985.41;;;11.07;72.06
63665;BME280;49820;33.966;73.390;2023-03-13T14:44:47;78984.94;;;10.97;72.11
63665;BME280;49820;33.966;73.390;2023-03-13T14:47:24;78998.78;;;11.07;72.02
63665;BME280;49820;33.966;73.390;2023-03-13T14:50:00;79000.81;;;11.05;71.01
63665;BME280;49820;33.966;73.390;2023-03-13T14:52:33;78998.72;;;11.09;71.02
63665;BME280;49820;33.966;73.390;2023-03-13T14:55:05;78990.09;;;11.07;70.53
63665;BME280;49820;33.966;73.390;2023-03-13T14:57:57;79007.06;;;11.26;69.67
63665;BME280;49820;33.966;73.390;2023-03-13T15:00:30;79004.44;;;11.24;69.30
63665;BME280;49820;33.966;73.390;2023-03-13T15:08:32;79007.66;;;11.29;69.71
63665;BME280;49820;33.966;73.390;2023-03-13T15:11:26;78983.91;;;11.15;68.95
63665;BME280;49820;33.966;73.390;2023-03-13T15:13:56;78996.97;;;11.29;69.24
63665;BME280;49820;33.966;73.390;2023-03-13T15:16:26;79012.28;;;11.32;69.24
63665;BME280;49820;33.966;73.390;2023-03-13T15:18:57;78981.22;;;11.15;69.22
63665;BME280;49820;33.966;73.390;2023-03-13T15:21:33;78988.69;;;11.10;69.63
63665;BME280;49820;33.966;73.390;2023-03-13T15:24:12;78997.38;;;11.11;68.35
63665;BME280;49820;33.966;73.390;2023-03-13T15:26:41;79013.16;;;11.23;67.40
63665;BME280;49820;33.966;73.390;2023-03-13T15:29:10;79005.84;;;11.19;67.43
63665;BME280;49820;33.966;73.390;2023-03-13T15:31:40;79002.09;;;11.08;67.75
63665;BME280;49820;33.966;73.390;2023-03-13T15:34:12;79008.63;;;11.15;67.52
63665;BME280;49820;33.966;73.390;2023-03-13T15:36:54;79002.66;;;11.13;65.79
63665;BME280;49820;33.966;73.390;2023-03-13T15:39:24;78985.44;;;11.05;64.84
63665;BME280;49820;33.966;73.390;2023-03-13T15:41:56;79014.59;;;11.18;63.84
63665;BME280;49820;33.966;73.390;2023-03-13T15:44:26;79015.19;;;11.20;61.48
63665;BME280;49820;33.966;73.390;2023-03-13T15:46:55;78987.81;;;10.89;59.14
63665;BME280;49820;33.966;73.390;2023-03-13T15:52:35;79017.19;;;10.56;52.20
63665;BME280;49820;33.966;73.390;2023-03-13T15:58:32;78994.97;;;9.93;63.04
63665;BME280;49820;33.966;73.390;2023-03-13T16:01:02;78995.81;;;9.84;67.92
63665;BME280;49820;33.966;73.390;2023-03-13T16:03:33;79016.78;;;9.67;70.28
63665;BME280;49820;33.966;73.390;2023-03-13T16:06:17;79028.66;;;9.74;73.46
63665;BME280;49820;33.966;73.390;2023-03-13T16:09:10;79015.69;;;9.52;75.15
63665;BME280;49820;33.966;73.390;2023-03-13T16:11:41;79005.25;;;9.38;77.04
63665;BME280;49820;33.966;73.390;2023-03-13T16:14:13;79032.94;;;9.57;78.68
63665;BME280;49820;33.966;73.390;2023-03-13T16:19:52;79038.66;;;9.33;80.61
63665;BME280;49820;33.966;73.390;2023-03-13T16:22:23;79019.59;;;9.16;79.50
63665;BME280;49820;33.966;73.390;2023-03-13T16:24:56;79016.28;;;9.13;80.27
63665;BME280;49820;33.966;73.390;2023-03-13T16:27:27;79033.50;;;9.23;80.95
63665;BME280;49820;33.966;73.390;2023-03-13T16:29:59;79023.47;;;9.23;80.97
63665;BME280;49820;33.966;73.390;2023-03-13T16:32:34;79019.06;;;9.07;83.14
63665;BME280;49820;33.966;73.390;2023-03-13T16:35:03;79019.84;;;8.98;83.79
63665;BME280;49820;33.966;73.390;2023-03-13T16:37:33;79008.63;;;8.91;85.05
63665;BME280;49820;33.966;73.390;2023-03-13T16:40:02;79025.72;;;9.06;83.43
63665;BME280;49820;33.966;73.390;2023-03-13T16:42:33;79008.13;;;8.80;84.10
63665;BME280;49820;33.966;73.390;2023-03-13T16:45:03;79027.28;;;8.91;83.90
63665;BME280;49820;33.966;73.390;2023-03-13T16:47:32;79007.66;;;8.66;84.43
63665;BME280;49820;33.966;73.390;2023-03-13T16:52:50;79035.47;;;8.77;85.80
63665;BME280;49820;33.966;73.390;2023-03-13T16:55:20;79015.13;;;8.53;85.89
63665;BME280;49820;33.966;73.390;2023-03-13T16:57:57;79033.66;;;8.61;86.45
63665;BME280;49820;33.966;73.390;2023-03-13T17:00:28;79019.91;;;8.45;88.06
63665;BME280;49820;33.966;73.390;2023-03-13T17:02:58;79037.84;;;8.48;88.09
63665;BME280;49820;33.966;73.390;2023-03-13T17:05:29;79039.94;;;8.39;88.74
63665;BME280;49820;33.966;73.390;2023-03-13T17:07:59;79033.22;;;8.45;88.52
63665;BME280;49820;33.966;73.390;2023-03-13T17:10:29;79033.19;;;8.49;87.42
63665;BME280;49820;33.966;73.390;2023-03-13T17:12:59;79023.28;;;8.43;88.05
63665;BME280;49820;33.966;73.390;2023-03-13T17:15:28;79029.19;;;8.48;89.25
63665;BME280;49820;33.966;73.390;2023-03-13T17:17:58;79000.28;;;8.15;88.57
63665;BME280;49820;33.966;73.390;2023-03-13T17:20:28;79031.97;;;8.37;89.56
63665;BME280;49820;33.966;73.390;2023-03-13T17:22:58;79008.25;;;8.17;91.25
63665;BME280;49820;33.966;73.390;2023-03-13T17:25:31;79006.34;;;8.10;89.85
63665;BME280;49820;33.966;73.390;2023-03-13T17:28:00;79002.38;;;8.09;91.18
63665;BME280;49820;33.966;73.390;2023-03-13T17:30:30;79031.44;;;8.25;93.91
63665;BME280;49820;33.966;73.390;2023-03-13T17:32:59;79020.28;;;8.12;93.97
63665;BME280;49820;33.966;73.390;2023-03-13T17:35:28;79026.16;;;8.21;96.35
63665;BME280;49820;33.966;73.390;2023-03-13T17:37:58;79005.81;;;7.99;96.67
63665;BME280;49820;33.966;73.390;2023-03-13T17:40:28;79024.97;;;8.10;97.29
63665;BME280;49820;33.966;73.390;2023-03-13T17:42:59;79005.31;;;7.86;99.71
63665;BME280;49820;33.966;73.390;2023-03-13T17:45:28;79023.16;;;7.94;100.00